sensor_id;sensor_type;location;lat;lon;timestamp;temperature;humidity
6903;DHT22;20232;49.408;8.702;2022-10-31T05:01:28;10.60;99.90
6903;DHT22;20232;49.408;8.702;2022-10-31T05:03:53;10.60;99.90
6903;DHT22;20232;49.408;8.702;2022-10-31T05:06:19;10.50;99.90
6903;DHT22;20232;49.408;8.702;2022-10-31T05:08:44;10.50;99.90
6903;DHT22;20232;49.408;8.702;2022-10-31T05:11:10;10.50;99.90
6903;DHT22;20232;49.408;8.702;2022-10-31T05:13:36;10.50;99.90
6903;DHT22;20232;49.408;8.702;2022-10-31T05:16:02;10.50;99.90
6903;DHT22;20232;49.408;8.702;2022-10-31T05:18:28;10.50;99.90
6903;DHT22;20232;49.408;8.702;2022-10-31T05:20:54;10.40;99.90
6903;DHT22;20232;49.408;8.702;2022-10-31T05:23:19;10.40;99.90
6903;DHT22;20232;49.408;8.702;2022-10-31T05:25:45;10.30;99.90
6903;DHT22;20232;49.408;8.702;2022-10-31T05:28:10;10.30;99.90
6903;DHT22;20232;49.408;8.702;2022-10-31T05:30:36;10.20;99.90
6903;DHT22;20232;49.408;8.702;2022-10-31T05:33:02;10.20;99.90
6903;DHT22;20232;49.408;8.702;2022-10-31T05:35:29;10.20;99.90
6903;DHT22;20232;49.408;8.702;2022-10-31T05:37:56;10.20;99.90
6903;DHT22;20232;49.408;8.702;2022-10-31T05:40:23;10.20;99.90
6903;DHT22;20232;49.408;8.702;2022-10-31T05:42:51;10.20;99.90
6903;DHT22;20232;49.408;8.702;2022-10-31T05:45:18;10.20;99.90
6903;DHT22;20232;49.408;8.702;2022-10-31T05:48:00;10.20;99.90
6903;DHT22;20232;49.408;8.702;2022-10-31T05:50:28;10.30;99.90
6903;DHT22;20232;49.408;8.702;2022-10-31T05:53:03;10.30;99.90
6903;DHT22;20232;49.408;8.702;2022-10-31T05:55:29;10.20;99.90
6903;DHT22;20232;49.408;8.702;2022-10-31T05:57:56;10.20;99.90
6903;DHT22;20232;49.408;8.702;2022-10-31T06:00:22;10.20;99.90
6903;DHT22;20232;49.408;8.702;2022-10-31T06:02:48;10.20;99.90
6903;DHT22;20232;49.408;8.702;2022-10-31T06:05:14;10.20;99.90
6903;DHT22;20232;49.408;8.702;2022-10-31T06:07:40;10.20;99.90
6903;DHT22;20232;49.408;8.702;2022-10-31T06:10:06;10.20;99.90
6903;DHT22;20232;49.408;8.702;2022-10-31T06:12:33;10.30;99.90
6903;DHT22;20232;49.408;8.702;2022-10-31T06:15:06;10.30;99.90
6903;DHT22;20232;49.408;8.702;2022-10-31T06:17:33;10.30;99.90
6903;DHT22;20232;49.408;8.702;2022-10-31T06:19:59;10.40;99.90
6903;DHT22;20232;49.408;8.702;2022-10-31T06:22:24;10.30;99.90
6903;DHT22;20232;49.408;8.702;2022-10-31T06:24:50;10.40;99.90
6903;DHT22;20232;49.408;8.702;2022-10-31T06:27:15;10.40;99.90
6903;DHT22;20232;49.408;8.702;2022-10-31T06:29:41;10.30;99.90
6903;DHT22;20232;49.408;8.702;2022-10-31T06:32:10;10.30;99.90
6903;DHT22;20232;49.408;8.702;2022-10-31T06:34:35;10.30;99.90
6903;DHT22;20232;49.408;8.702;2022-10-31T06:37:01;10.30;99.90
6903;DHT22;20232;49.408;8.702;2022-10-31T06:39:26;10.30;99.90
6903;DHT22;20232;49.408;8.702;2022-10-31T06:41:52;10.40;99.90
6903;DHT22;20232;49.408;8.702;2022-10-31T06:44:17;10.40;99.90
6903;DHT22;20232;49.408;8.702;2022-10-31T06:46:45;10.50;99.90
6903;DHT22;20232;49.408;8.702;2022-10-31T06:49:10;10.50;99.90
6903;DHT22;20232;49.408;8.702;2022-10-31T06:51:36;10.60;99.90
6903;DHT22;20232;49.408;8.702;2022-10-31T06:54:02;10.60;99.90
6903;DHT22;20232;49.408;8.702;2022-10-31T06:56:27;10.70;99.90
6903;DHT22;20232;49.408;8.702;2022-10-31T06:58:53;10.70;99.90
6903;DHT22;20232;49.408;8.702;2022-10-31T07:01:18;10.80;99.90
6903;DHT22;20232;49.408;8.702;2022-10-31T07:03:44;10.80;99.90
6903;DHT22;20232;49.408;8.702;2022-10-31T07:06:09;10.80;99.90
6903;DHT22;20232;49.408;8.702;2022-10-31T07:08:35;10.90;99.90
6903;DHT22;20232;49.408;8.702;2022-10-31T07:11:00;10.90;99.90
6903;DHT22;20232;49.408;8.702;2022-10-31T07:13:26;11.00;99.90
6903;DHT22;20232;49.408;8.702;2022-10-31T07:15:53;11.00;99.90
6903;DHT22;20232;49.408;8.702;2022-10-31T07:18:19;10.90;99.90
6903;DHT22;20232;49.408;8.702;2022-10-31T07:20:45;10.90;99.90
6903;DHT22;20232;49.408;8.702;2022-10-31T07:23:11;11.00;99.90
6903;DHT22;20232;49.408;8.702;2022-10-31T07:25:38;11.10;99.90
6903;DHT22;20232;49.408;8.702;2022-10-31T07:28:04;11.10;99.90
6903;DHT22;20232;49.408;8.702;2022-10-31T07:30:30;11.10;99.90
6903;DHT22;20232;49.408;8.702;2022-10-31T07:32:56;11.30;99.90
6903;DHT22;20232;49.408;8.702;2022-10-31T07:35:23;11.40;99.90
6903;DHT22;20232;49.408;8.702;2022-10-31T07:37:50;11.50;99.90
6903;DHT22;20232;49.408;8.702;2022-10-31T07:40:16;11.50;99.90
6903;DHT22;20232;49.408;8.702;2022-10-31T07:42:44;11.60;99.90
6903;DHT22;20232;49.408;8.702;2022-10-31T07:45:11;11.80;99.90
6903;DHT22;20232;49.408;8.702;2022-10-31T07:47:46;11.80;99.90
6903;DHT22;20232;49.408;8.702;2022-10-31T07:50:14;11.80;99.90
6903;DHT22;20232;49.408;8.702;2022-10-31T07:52:40;11.90;99.90
6903;DHT22;20232;49.408;8.702;2022-10-31T07:55:07;12.00;99.90
6903;DHT22;20232;49.408;8.702;2022-10-31T07:57:33;12.00;99.90
6903;DHT22;20232;49.408;8.702;2022-10-31T07:59:59;12.10;99.90
6903;DHT22;20232;49.408;8.702;2022-10-31T08:02:25;12.10;99.90
6903;DHT22;20232;49.408;8.702;2022-10-31T08:04:51;12.20;99.90
6903;DHT22;20232;49.408;8.702;2022-10-31T08:07:17;12.20;99.90
6903;DHT22;20232;49.408;8.702;2022-10-31T08:09:43;12.20;99.90
6903;DHT22;20232;49.408;8.702;2022-10-31T08:12:08;12.30;99.90
6903;DHT22;20232;49.408;8.702;2022-10-31T08:14:34;12.30;99.90
6903;DHT22;20232;49.408;8.702;2022-10-31T08:16:59;12.40;99.90
6903;DHT22;20232;49.408;8.702;2022-10-31T08:19:25;12.40;99.90
6903;DHT22;20232;49.408;8.702;2022-10-31T08:21:51;12.40;99.90
6903;DHT22;20232;49.408;8.702;2022-10-31T08:24:17;12.40;99.90
6903;DHT22;20232;49.408;8.702;2022-10-31T08:26:43;12.50;99.90
6903;DHT22;20232;49.408;8.702;2022-10-31T08:29:09;12.50;99.90
6903;DHT22;20232;49.408;8.702;2022-10-31T08:31:34;12.60;99.90
6903;DHT22;20232;49.408;8.702;2022-10-31T08:34:00;12.70;99.90
6903;DHT22;20232;49.408;8.702;2022-10-31T08:36:27;12.70;99.90
6903;DHT22;20232;49.408;8.702;2022-10-31T08:38:53;12.80;99.90
6903;DHT22;20232;49.408;8.702;2022-10-31T08:41:18;13.00;99.90
6903;DHT22;20232;49.408;8.702;2022-10-31T08:43:44;13.10;99.90
6903;DHT22;20232;49.408;8.702;2022-10-31T08:46:09;13.20;99.90
6903;DHT22;20232;49.408;8.702;2022-10-31T08:48:35;13.20;99.90
6903;DHT22;20232;49.408;8.702;2022-10-31T08:51:00;13.30;99.90
6903;DHT22;20232;49.408;8.702;2022-10-31T08:53:26;13.50;99.90
6903;DHT22;20232;49.408;8.702;2022-10-31T08:55:55;13.60;99.90
6903;DHT22;20232;49.408;8.702;2022-10-31T08:58:21;13.70;99.90
6903;DHT22;20232;49.408;8.702;2022-10-31T09:00:48;13.80;99.90
6903;DHT22;20232;49.408;8.702;2022-10-31T09:03:20;14.00;99.90
6903;DHT22;20232;49.408;8.702;2022-10-31T09:05:46;14.10;99.90
6903;DHT22;20232;49.408;8.702;2022-10-31T09:08:12;14.20;99.90
6903;DHT22;20232;49.408;8.702;2022-10-31T09:10:38;14.40;99.90
6903;DHT22;20232;49.408;8.702;2022-10-31T09:13:09;14.50;99.90
6903;DHT22;20232;49.408;8.702;2022-10-31T09:15:37;14.70;99.90
6903;DHT22;20232;49.408;8.702;2022-10-31T09:18:06;14.70;99.90
6903;DHT22;20232;49.408;8.702;2022-10-31T09:20:34;14.90;99.90
6903;DHT22;20232;49.408;8.702;2022-10-31T09:23:02;15.10;99.90
6903;DHT22;20232;49.408;8.702;2022-10-31T09:25:29;15.30;99.90
6903;DHT22;20232;49.408;8.702;2022-10-31T09:27:58;15.40;99.90
6903;DHT22;20232;49.408;8.702;2022-10-31T09:30:26;15.60;99.90
6903;DHT22;20232;49.408;8.702;2022-10-31T09:33:00;15.70;99.90
6903;DHT22;20232;49.408;8.702;2022-10-31T09:35:26;15.90;99.90
6903;DHT22;20232;49.408;8.702;2022-10-31T09:38:00;16.00;99.90
6903;DHT22;20232;49.408;8.702;2022-10-31T09:40:39;16.00;99.90
6903;DHT22;20232;49.408;8.702;2022-10-31T09:43:26;16.10;99.90
6903;DHT22;20232;49.408;8.702;2022-10-31T09:53:54;16.30;99.90
6903;DHT22;20232;49.408;8.702;2022-10-31T09:56:25;16.30;99.90
6903;DHT22;20232;49.408;8.702;2022-10-31T09:58:57;16.40;99.90
6903;DHT22;20232;49.408;8.702;2022-10-31T10:04:00;16.60;99.90
6903;DHT22;20232;49.408;8.702;2022-10-31T10:06:29;16.70;99.90
6903;DHT22;20232;49.408;8.702;2022-10-31T10:08:57;16.70;99.90
6903;DHT22;20232;49.408;8.702;2022-10-31T10:14:24;16.90;99.90
6903;DHT22;20232;49.408;8.702;2022-10-31T10:17:18;17.00;99.90
6903;DHT22;20232;49.408;8.702;2022-10-31T10:23:18;17.20;99.90
6903;DHT22;20232;49.408;8.702;2022-10-31T10:25:48;17.20;99.90
6903;DHT22;20232;49.408;8.702;2022-10-31T10:28:29;17.30;99.90
6903;DHT22;20232;49.408;8.702;2022-10-31T10:31:01;17.30;99.90
6903;DHT22;20232;49.408;8.702;2022-10-31T10:33:36;17.30;99.90
6903;DHT22;20232;49.408;8.702;2022-10-31T10:38:58;17.30;99.90
6903;DHT22;20232;49.408;8.702;2022-10-31T10:41:30;17.40;99.90
6903;DHT22;20232;49.408;8.702;2022-10-31T10:43:56;17.50;99.90
6903;DHT22;20232;49.408;8.702;2022-10-31T10:46:43;17.60;99.90
6903;DHT22;20232;49.408;8.702;2022-10-31T10:49:50;17.70;99.90
6903;DHT22;20232;49.408;8.702;2022-10-31T10:55:08;17.80;99.90
6903;DHT22;20232;49.408;8.702;2022-10-31T10:57:49;18.00;99.90
6903;DHT22;20232;49.408;8.702;2022-10-31T11:00:25;18.20;99.90
6903;DHT22;20232;49.408;8.702;2022-10-31T11:05:48;18.40;99.90
6903;DHT22;20232;49.408;8.702;2022-10-31T11:08:25;18.40;99.90
6903;DHT22;20232;49.408;8.702;2022-10-31T11:11:19;18.10;99.90
6903;DHT22;20232;49.408;8.702;2022-10-31T11:13:50;17.90;99.90
6903;DHT22;20232;49.408;8.702;2022-10-31T11:16:30;18.10;99.90
6903;DHT22;20232;49.408;8.702;2022-10-31T11:19:24;17.90;99.90
6903;DHT22;20232;49.408;8.702;2022-10-31T11:21:52;18.30;99.90
6903;DHT22;20232;49.408;8.702;2022-10-31T11:24:23;18.40;99.90
6903;DHT22;20232;49.408;8.702;2022-10-31T11:26:51;18.80;99.90
6903;DHT22;20232;49.408;8.702;2022-10-31T11:29:19;18.80;99.90
6903;DHT22;20232;49.408;8.702;2022-10-31T11:31:46;19.10;99.90
6903;DHT22;20232;49.408;8.702;2022-10-31T11:34:28;19.00;99.90
6903;DHT22;20232;49.408;8.702;2022-10-31T11:37:02;19.20;99.90
6903;DHT22;20232;49.408;8.702;2022-10-31T11:39:28;19.30;99.90
6903;DHT22;20232;49.408;8.702;2022-10-31T11:41:54;19.40;99.90
6903;DHT22;20232;49.408;8.702;2022-10-31T11:44:28;19.50;99.90
6903;DHT22;20232;49.408;8.702;2022-10-31T11:46:57;19.60;99.90
6903;DHT22;20232;49.408;8.702;2022-10-31T11:49:41;19.60;99.90
6903;DHT22;20232;49.408;8.702;2022-10-31T11:52:14;19.40;99.90
6903;DHT22;20232;49.408;8.702;2022-10-31T11:54:50;19.60;99.90
6903;DHT22;20232;49.408;8.702;2022-10-31T11:57:29;19.70;99.90
6903;DHT22;20232;49.408;8.702;2022-10-31T11:59:57;19.60;99.90
6903;DHT22;20232;49.408;8.702;2022-10-31T12:02:24;19.70;99.90
6903;DHT22;20232;49.408;8.702;2022-10-31T12:07:45;20.20;99.90
6903;DHT22;20232;49.408;8.702;2022-10-31T12:10:11;20.50;99.90
6903;DHT22;20232;49.408;8.702;2022-10-31T12:12:45;20.60;99.90
6903;DHT22;20232;49.408;8.702;2022-10-31T12:17:55;20.50;99.90
6903;DHT22;20232;49.408;8.702;2022-10-31T12:20:53;20.60;99.90
6903;DHT22;20232;49.408;8.702;2022-10-31T12:23:26;20.50;99.90
6903;DHT22;20232;49.408;8.702;2022-10-31T12:26:17;20.40;99.90
6903;DHT22;20232;49.408;8.702;2022-10-31T12:32:00;20.20;99.90
6903;DHT22;20232;49.408;8.702;2022-10-31T12:34:44;19.90;99.90
6903;DHT22;20232;49.408;8.702;2022-10-31T13:02:22;18.60;99.90
6903;DHT22;20232;49.408;8.702;2022-10-31T13:07:28;18.70;99.90
6903;DHT22;20232;49.408;8.702;2022-10-31T13:10:10;18.80;99.90
6903;DHT22;20232;49.408;8.702;2022-10-31T13:12:40;19.10;99.90
6903;DHT22;20232;49.408;8.702;2022-10-31T13:15:18;19.50;99.90
6903;DHT22;20232;49.408;8.702;2022-10-31T13:17:51;19.80;99.90
6903;DHT22;20232;49.408;8.702;2022-10-31T13:20:30;19.90;99.90
6903;DHT22;20232;49.408;8.702;2022-10-31T13:25:33;19.40;99.90
6903;DHT22;20232;49.408;8.702;2022-10-31T13:28:17;19.00;99.90
6903;DHT22;20232;49.408;8.702;2022-10-31T13:30:46;18.60;99.90
6903;DHT22;20232;49.408;8.702;2022-10-31T13:33:20;18.30;99.90
6903;DHT22;20232;49.408;8.702;2022-10-31T13:46:47;18.30;99.90
6903;DHT22;20232;49.408;8.702;2022-10-31T13:54:48;21.00;99.90
6903;DHT22;20232;49.408;8.702;2022-10-31T14:43:24;26.10;95.00
6903;DHT22;20232;49.408;8.702;2022-10-31T14:51:16;22.10;99.90
6903;DHT22;20232;49.408;8.702;2022-10-31T14:53:54;21.10;99.90
6903;DHT22;20232;49.408;8.702;2022-10-31T14:56:25;20.50;99.90
6903;DHT22;20232;49.408;8.702;2022-10-31T14:58:54;19.90;99.90
6903;DHT22;20232;49.408;8.702;2022-10-31T15:01:29;19.00;99.90
6903;DHT22;20232;49.408;8.702;2022-10-31T15:06:43;18.40;99.90
6903;DHT22;20232;49.408;8.702;2022-10-31T15:09:24;18.20;99.90
6903;DHT22;20232;49.408;8.702;2022-10-31T15:11:50;17.90;99.90
6903;DHT22;20232;49.408;8.702;2022-10-31T15:14:30;17.80;99.90
6903;DHT22;20232;49.408;8.702;2022-10-31T15:17:02;17.70;99.90
6903;DHT22;20232;49.408;8.702;2022-10-31T15:19:30;17.60;99.90
6903;DHT22;20232;49.408;8.702;2022-10-31T15:21:57;17.60;99.90
6903;DHT22;20232;49.408;8.702;2022-10-31T15:24:28;17.50;99.90
6903;DHT22;20232;49.408;8.702;2022-10-31T15:26:55;17.50;99.90
6903;DHT22;20232;49.408;8.702;2022-10-31T15:29:24;17.40;99.90
6903;DHT22;20232;49.408;8.702;2022-10-31T15:34:41;17.20;99.90
6903;DHT22;20232;49.408;8.702;2022-10-31T15:37:14;17.10;99.90
6903;DHT22;20232;49.408;8.702;2022-10-31T15:39:40;17.00;99.90
6903;DHT22;20232;49.408;8.702;2022-10-31T15:44:42;17.00;99.90
6903;DHT22;20232;49.408;8.702;2022-10-31T15:47:35;16.90;99.90
6903;DHT22;20232;49.408;8.702;2022-10-31T15:50:02;16.90;99.90
6903;DHT22;20232;49.408;8.702;2022-10-31T15:52:32;16.80;99.90
6903;DHT22;20232;49.408;8.702;2022-10-31T15:55:25;16.70;99.90
6903;DHT22;20232;49.408;8.702;2022-10-31T15:57:56;16.60;99.90
6903;DHT22;20232;49.408;8.702;2022-10-31T16:00:33;16.60;99.90
6903;DHT22;20232;49.408;8.702;2022-10-31T16:05:56;16.60;99.90
6903;DHT22;20232;49.408;8.702;2022-10-31T16:10:51;16.50;99.90
6903;DHT22;20232;49.408;8.702;2022-10-31T16:13:17;16.50;99.90
6903;DHT22;20232;49.408;8.702;2022-10-31T16:15:54;16.50;99.90
6903;DHT22;20232;49.408;8.702;2022-10-31T16:18:20;16.40;99.90
6903;DHT22;20232;49.408;8.702;2022-10-31T16:20:51;16.30;99.90
6903;DHT22;20232;49.408;8.702;2022-10-31T16:23:22;16.30;99.90
6903;DHT22;20232;49.408;8.702;2022-10-31T16:25:49;16.20;99.90
6903;DHT22;20232;49.408;8.702;2022-10-31T16:28:24;16.30;99.90
6903;DHT22;20232;49.408;8.702;2022-10-31T16:30:52;16.30;99.90
6903;DHT22;20232;49.408;8.702;2022-10-31T16:33:25;16.30;99.90
6903;DHT22;20232;49.408;8.702;2022-10-31T16:35:52;16.30;99.90
6903;DHT22;20232;49.408;8.702;2022-10-31T16:38:18;16.30;99.90
6903;DHT22;20232;49.408;8.702;2022-10-31T16:40:44;16.30;99.90
6903;DHT22;20232;49.408;8.702;2022-10-31T16:43:15;16.20;99.90
6903;DHT22;20232;49.408;8.702;2022-10-31T16:45:47;16.20;99.90
6903;DHT22;20232;49.408;8.702;2022-10-31T16:48:21;16.10;99.90
6903;DHT22;20232;49.408;8.702;2022-10-31T16:50:48;16.10;99.90
6903;DHT22;20232;49.408;8.702;2022-10-31T16:53:15;16.00;99.90
6903;DHT22;20232;49.408;8.702;2022-10-31T16:55:55;16.00;99.90
6903;DHT22;20232;49.408;8.702;2022-10-31T16:58:29;16.00;99.90
6903;DHT22;20232;49.408;8.702;2022-10-31T17:00:55;16.10;99.90
6903;DHT22;20232;49.408;8.702;2022-10-31T17:03:21;16.20;99.90
6903;DHT22;20232;49.408;8.702;2022-10-31T17:05:48;16.40;99.90
6903;DHT22;20232;49.408;8.702;2022-10-31T17:08:13;16.50;99.90
6903;DHT22;20232;49.408;8.702;2022-10-31T17:10:40;16.40;99.90
6903;DHT22;20232;49.408;8.702;2022-10-31T17:13:11;16.30;99.90
6903;DHT22;20232;49.408;8.702;2022-10-31T17:15:43;16.20;99.90
6903;DHT22;20232;49.408;8.702;2022-10-31T17:18:13;16.10;99.90
6903;DHT22;20232;49.408;8.702;2022-10-31T17:20:39;16.00;99.90
6903;DHT22;20232;49.408;8.702;2022-10-31T17:23:05;16.00;99.90
6903;DHT22;20232;49.408;8.702;2022-10-31T17:25:31;15.90;99.90
6903;DHT22;20232;49.408;8.702;2022-10-31T17:27:57;15.90;99.90
6903;DHT22;20232;49.408;8.702;2022-10-31T17:30:24;15.80;99.90
6903;DHT22;20232;49.408;8.702;2022-10-31T17:32:50;15.80;99.90
6903;DHT22;20232;49.408;8.702;2022-10-31T17:35:17;15.80;99.90
6903;DHT22;20232;49.408;8.702;2022-10-31T17:37:44;15.70;99.90
6903;DHT22;20232;49.408;8.702;2022-10-31T17:40:12;15.70;99.90
6903;DHT22;20232;49.408;8.702;2022-10-31T17:42:38;15.60;99.90
6903;DHT22;20232;49.408;8.702;2022-10-31T17:45:05;15.50;99.90
6903;DHT22;20232;49.408;8.702;2022-10-31T17:47:31;15.50;99.90
6903;DHT22;20232;49.408;8.702;2022-10-31T17:49:57;15.50;99.90
6903;DHT22;20232;49.408;8.702;2022-10-31T17:52:23;15.50;99.90
6903;DHT22;20232;49.408;8.702;2022-10-31T17:54:48;15.50;99.90
6903;DHT22;20232;49.408;8.702;2022-10-31T17:57:14;15.50;99.90
6903;DHT22;20232;49.408;8.702;2022-10-31T17:59:40;15.50;99.90
6903;DHT22;20232;49.408;8.702;2022-10-31T18:02:07;15.50;99.90
6903;DHT22;20232;49.408;8.702;2022-10-31T18:04:34;15.50;99.90
6903;DHT22;20232;49.408;8.702;2022-10-31T18:07:00;15.40;99.90
6903;DHT22;20232;49.408;8.702;2022-10-31T18:09:26;15.40;99.90
6903;DHT22;20232;49.408;8.702;2022-10-31T18:11:51;15.40;99.90
6903;DHT22;20232;49.408;8.702;2022-10-31T18:14:17;15.30;99.90
6903;DHT22;20232;49.408;8.702;2022-10-31T18:16:42;15.30;99.90
6903;DHT22;20232;49.408;8.702;2022-10-31T18:19:11;15.30;99.90
6903;DHT22;20232;49.408;8.702;2022-10-31T18:21:37;15.30;99.90
6903;DHT22;20232;49.408;8.702;2022-10-31T18:24:03;15.20;99.90
6903;DHT22;20232;49.408;8.702;2022-10-31T18:26:29;15.10;99.90
6903;DHT22;20232;49.408;8.702;2022-10-31T18:28:55;15.10;99.90
6903;DHT22;20232;49.408;8.702;2022-10-31T18:31:21;15.10;99.90
6903;DHT22;20232;49.408;8.702;2022-10-31T18:33:46;15.10;99.90
6903;DHT22;20232;49.408;8.702;2022-10-31T18:36:12;15.10;99.90
6903;DHT22;20232;49.408;8.702;2022-10-31T18:38:42;15.10;99.90
6903;DHT22;20232;49.408;8.702;2022-10-31T18:41:11;15.20;99.90
6903;DHT22;20232;49.408;8.702;2022-10-31T18:43:37;15.20;99.90
6903;DHT22;20232;49.408;8.702;2022-10-31T18:46:06;15.20;99.90
6903;DHT22;20232;49.408;8.702;2022-10-31T18:48:33;15.20;99.90
6903;DHT22;20232;49.408;8.702;2022-10-31T18:53:27;15.10;99.90
6903;DHT22;20232;49.408;8.702;2022-10-31T18:55:53;15.00;99.90
6903;DHT22;20232;49.408;8.702;2022-10-31T18:58:18;14.90;99.90
6903;DHT22;20232;49.408;8.702;2022-10-31T19:00:44;14.90;99.90
6903;DHT22;20232;49.408;8.702;2022-10-31T19:03:10;14.80;99.90
6903;DHT22;20232;49.408;8.702;2022-10-31T19:05:36;14.80;99.90
6903;DHT22;20232;49.408;8.702;2022-10-31T19:08:01;14.80;99.90
6903;DHT22;20232;49.408;8.702;2022-10-31T19:10:27;14.80;99.90
6903;DHT22;20232;49.408;8.702;2022-10-31T19:12:53;14.80;99.90
6903;DHT22;20232;49.408;8.702;2022-10-31T19:15:18;14.80;99.90
6903;DHT22;20232;49.408;8.702;2022-10-31T19:17:44;14.80;99.90
6903;DHT22;20232;49.408;8.702;2022-10-31T19:20:11;14.80;99.90
6903;DHT22;20232;49.408;8.702;2022-10-31T19:22:37;14.70;99.90
6903;DHT22;20232;49.408;8.702;2022-10-31T19:25:02;14.70;99.90
6903;DHT22;20232;49.408;8.702;2022-10-31T19:27:28;14.70;99.90
6903;DHT22;20232;49.408;8.702;2022-10-31T19:29:54;14.60;99.90
6903;DHT22;20232;49.408;8.702;2022-10-31T19:32:19;14.60;99.90
6903;DHT22;20232;49.408;8.702;2022-10-31T19:34:45;14.60;99.90
6903;DHT22;20232;49.408;8.702;2022-10-31T19:37:10;14.50;99.90
6903;DHT22;20232;49.408;8.702;2022-10-31T19:39:36;14.60;99.90
6903;DHT22;20232;49.408;8.702;2022-10-31T19:42:01;14.60;99.90
6903;DHT22;20232;49.408;8.702;2022-10-31T19:44:27;14.50;99.90
6903;DHT22;20232;49.408;8.702;2022-10-31T19:46:55;14.50;99.90
6903;DHT22;20232;49.408;8.702;2022-10-31T19:49:20;14.40;99.90
6903;DHT22;20232;49.408;8.702;2022-10-31T19:51:46;14.30;99.90
6903;DHT22;20232;49.408;8.702;2022-10-31T19:54:11;14.30;99.90
6903;DHT22;20232;49.408;8.702;2022-10-31T19:56:37;14.30;99.90
6903;DHT22;20232;49.408;8.702;2022-10-31T19:59:02;14.20;99.90
6903;DHT22;20232;49.408;8.702;2022-10-31T20:01:28;14.20;99.90
6903;DHT22;20232;49.408;8.702;2022-10-31T20:03:54;14.20;99.90
6903;DHT22;20232;49.408;8.702;2022-10-31T20:06:23;14.10;99.90
6903;DHT22;20232;49.408;8.702;2022-10-31T20:08:49;14.00;99.90
6903;DHT22;20232;49.408;8.702;2022-10-31T20:11:15;14.00;99.90
6903;DHT22;20232;49.408;8.702;2022-10-31T20:13:41;13.90;99.90
6903;DHT22;20232;49.408;8.702;2022-10-31T20:16:08;14.00;99.90
6903;DHT22;20232;49.408;8.702;2022-10-31T20:18:35;14.00;99.90
6903;DHT22;20232;49.408;8.702;2022-10-31T20:21:06;14.00;99.90
6903;DHT22;20232;49.408;8.702;2022-10-31T20:23:32;13.90;99.90
6903;DHT22;20232;49.408;8.702;2022-10-31T20:25:58;14.00;99.90
6903;DHT22;20232;49.408;8.702;2022-10-31T20:28:24;13.90;99.90
6903;DHT22;20232;49.408;8.702;2022-10-31T20:30:49;13.90;99.90
6903;DHT22;20232;49.408;8.702;2022-10-31T20:33:15;13.90;99.90
6903;DHT22;20232;49.408;8.702;2022-10-31T20:35:41;13.80;99.90
6903;DHT22;20232;49.408;8.702;2022-10-31T20:38:07;13.80;99.90
6903;DHT22;20232;49.408;8.702;2022-10-31T20:40:34;13.70;99.90
6903;DHT22;20232;49.408;8.702;2022-10-31T20:43:00;13.70;99.90
6903;DHT22;20232;49.408;8.702;2022-10-31T20:45:27;13.60;99.90
6903;DHT22;20232;49.408;8.702;2022-10-31T20:47:53;13.60;99.90
6903;DHT22;20232;49.408;8.702;2022-10-31T20:50:19;13.60;99.90
6903;DHT22;20232;49.408;8.702;2022-10-31T20:52:45;13.50;99.90
6903;DHT22;20232;49.408;8.702;2022-10-31T20:55:10;13.50;99.90
6903;DHT22;20232;49.408;8.702;2022-10-31T20:57:36;13.50;99.90
6903;DHT22;20232;49.408;8.702;2022-10-31T21:00:03;13.50;99.90
6903;DHT22;20232;49.408;8.702;2022-10-31T21:02:28;13.50;99.90
6903;DHT22;20232;49.408;8.702;2022-10-31T21:04:54;13.60;99.90
6903;DHT22;20232;49.408;8.702;2022-10-31T21:07:19;13.60;99.90
6903;DHT22;20232;49.408;8.702;2022-10-31T21:09:45;13.60;99.90
6903;DHT22;20232;49.408;8.702;2022-10-31T21:12:10;13.60;99.90
6903;DHT22;20232;49.408;8.702;2022-10-31T21:14:36;13.60;99.90
6903;DHT22;20232;49.408;8.702;2022-10-31T21:17:03;13.60;99.90
6903;DHT22;20232;49.408;8.702;2022-10-31T21:19:28;13.60;99.90
6903;DHT22;20232;49.408;8.702;2022-10-31T21:21:54;13.50;99.90
6903;DHT22;20232;49.408;8.702;2022-10-31T21:24:20;13.50;99.90
6903;DHT22;20232;49.408;8.702;2022-10-31T21:26:49;13.40;99.90
6903;DHT22;20232;49.408;8.702;2022-10-31T21:29:16;13.40;99.90
6903;DHT22;20232;49.408;8.702;2022-10-31T21:31:43;13.40;99.90
6903;DHT22;20232;49.408;8.702;2022-10-31T21:34:09;13.40;99.90
6903;DHT22;20232;49.408;8.702;2022-10-31T21:36:35;13.30;99.90
6903;DHT22;20232;49.408;8.702;2022-10-31T21:39:01;13.30;99.90
6903;DHT22;20232;49.408;8.702;2022-10-31T21:41:27;13.30;99.90
6903;DHT22;20232;49.408;8.702;2022-10-31T21:43:53;13.30;99.90
6903;DHT22;20232;49.408;8.702;2022-10-31T21:46:22;13.30;99.90
6903;DHT22;20232;49.408;8.702;2022-10-31T21:48:48;13.30;99.90
6903;DHT22;20232;49.408;8.702;2022-10-31T21:51:18;13.30;99.90
6903;DHT22;20232;49.408;8.702;2022-10-31T21:53:44;13.30;99.90
6903;DHT22;20232;49.408;8.702;2022-10-31T21:56:28;13.30;99.90
6903;DHT22;20232;49.408;8.702;2022-10-31T21:58:54;13.30;99.90
6903;DHT22;20232;49.408;8.702;2022-10-31T22:01:23;13.30;99.90
6903;DHT22;20232;49.408;8.702;2022-10-31T22:03:49;13.20;99.90
6903;DHT22;20232;49.408;8.702;2022-10-31T22:06:15;13.20;99.90
6903;DHT22;20232;49.408;8.702;2022-10-31T22:08:40;13.10;99.90
6903;DHT22;20232;49.408;8.702;2022-10-31T22:11:12;13.10;99.90
6903;DHT22;20232;49.408;8.702;2022-10-31T22:13:38;13.10;99.90
6903;DHT22;20232;49.408;8.702;2022-10-31T22:16:09;13.10;99.90
6903;DHT22;20232;49.408;8.702;2022-10-31T22:18:36;13.10;99.90
6903;DHT22;20232;49.408;8.702;2022-10-31T22:21:03;13.10;99.90
6903;DHT22;20232;49.408;8.702;2022-10-31T22:23:29;13.10;99.90
6903;DHT22;20232;49.408;8.702;2022-10-31T22:25:55;13.00;99.90
6903;DHT22;20232;49.408;8.702;2022-10-31T22:28:21;13.00;99.90
6903;DHT22;20232;49.408;8.702;2022-10-31T22:30:47;13.00;99.90
6903;DHT22;20232;49.408;8.702;2022-10-31T22:33:12;13.00;99.90
6903;DHT22;20232;49.408;8.702;2022-10-31T22:35:38;13.10;99.90
6903;DHT22;20232;49.408;8.702;2022-10-31T22:38:04;13.00;99.90
6903;DHT22;20232;49.408;8.702;2022-10-31T22:40:31;13.10;99.90
6903;DHT22;20232;49.408;8.702;2022-10-31T22:42:57;13.10;99.90
6903;DHT22;20232;49.408;8.702;2022-10-31T22:45:22;13.10;99.90
6903;DHT22;20232;49.408;8.702;2022-10-31T22:47:48;13.10;99.90
6903;DHT22;20232;49.408;8.702;2022-10-31T22:50:13;13.10;99.90
6903;DHT22;20232;49.408;8.702;2022-10-31T22:52:39;13.10;99.90
6903;DHT22;20232;49.408;8.702;2022-10-31T22:55:05;13.20;99.90
6903;DHT22;20232;49.408;8.702;2022-10-31T22:57:31;13.20;99.90
6903;DHT22;20232;49.408;8.702;2022-10-31T22:59:56;13.30;99.90
6903;DHT22;20232;49.408;8.702;2022-10-31T23:02:22;13.30;99.90
6903;DHT22;20232;49.408;8.702;2022-10-31T23:04:47;13.30;99.90
6903;DHT22;20232;49.408;8.702;2022-10-31T23:07:13;13.30;99.90
6903;DHT22;20232;49.408;8.702;2022-10-31T23:09:38;13.30;99.90
6903;DHT22;20232;49.408;8.702;2022-10-31T23:12:05;13.40;99.90
6903;DHT22;20232;49.408;8.702;2022-10-31T23:14:50;13.40;99.90
6903;DHT22;20232;49.408;8.702;2022-10-31T23:17:15;13.40;99.90
6903;DHT22;20232;49.408;8.702;2022-10-31T23:19:44;13.40;99.90
6903;DHT22;20232;49.408;8.702;2022-10-31T23:22:10;13.50;99.90